sensor_id;sensor_type;location;lat;lon;timestamp;pressure;altitude;pressure_sealevel;temperature;humidity
73103;BME280;61294;65.988;29.172;2023-09-30T00:05:09;97151.56;;;10.61;100.00
73103;BME280;61294;65.988;29.172;2023-09-30T00:08:00;97149.81;;;10.60;100.00
73103;BME280;61294;65.988;29.172;2023-09-30T00:10:39;97151.56;;;10.61;100.00
73103;BME280;61294;65.988;29.172;2023-09-30T00:13:26;97140.38;;;10.53;100.00
73103;BME280;61294;65.988;29.172;2023-09-30T00:16:29;97147.28;;;10.57;100.00
73103;BME280;61294;65.988;29.172;2023-09-30T00:18:58;97147.19;;;10.60;100.00
73103;BME280;61294;65.988;29.172;2023-09-30T00:24:48;97117.81;;;10.44;100.00
73103;BME280;61294;65.988;29.172;2023-09-30T00:27:17;97117.81;;;10.44;100.00
73103;BME280;61294;65.988;29.172;2023-09-30T00:29:43;97119.53;;;10.45;100.00
73103;BME280;61294;65.988;29.172;2023-09-30T00:32:09;97116.13;;;10.42;100.00
73103;BME280;61294;65.988;29.172;2023-09-30T00:34:38;97110.91;;;10.40;100.00
73103;BME280;61294;65.988;29.172;2023-09-30T00:37:41;97134.31;;;10.51;100.00
73103;BME280;61294;65.988;29.172;2023-09-30T00:43:20;97142.25;;;10.49;100.00
73103;BME280;61294;65.988;29.172;2023-09-30T00:46:26;97136.94;;;10.51;100.00
73103;BME280;61294;65.988;29.172;2023-09-30T00:49:16;97131.81;;;10.46;100.00
73103;BME280;61294;65.988;29.172;2023-09-30T00:52:05;97127.34;;;10.48;100.00
73103;BME280;61294;65.988;29.172;2023-09-30T00:54:34;97129.00;;;10.52;100.00
73103;BME280;61294;65.988;29.172;2023-09-30T00:57:08;97116.91;;;10.45;100.00
73103;BME280;61294;65.988;29.172;2023-09-30T00:59:44;97108.41;;;10.35;100.00
73103;BME280;61294;65.988;29.172;2023-09-30T01:02:12;97110.00;;;10.41;100.00
73103;BME280;61294;65.988;29.172;2023-09-30T01:04:38;97108.22;;;10.42;100.00
73103;BME280;61294;65.988;29.172;2023-09-30T01:07:04;97118.56;;;10.49;100.00
73103;BME280;61294;65.988;29.172;2023-09-30T01:09:30;97117.69;;;10.49;100.00
73103;BME280;61294;65.988;29.172;2023-09-30T01:11:57;97110.78;;;10.45;100.00
73103;BME280;61294;65.988;29.172;2023-09-30T01:14:27;97102.06;;;10.43;100.00
73103;BME280;61294;65.988;29.172;2023-09-30T01:16:53;97107.28;;;10.44;100.00
73103;BME280;61294;65.988;29.172;2023-09-30T01:19:20;97111.59;;;10.47;100.00
73103;BME280;61294;65.988;29.172;2023-09-30T01:21:46;97116.78;;;10.50;100.00
73103;BME280;61294;65.988;29.172;2023-09-30T01:24:14;97108.22;;;10.42;100.00
73103;BME280;61294;65.988;29.172;2023-09-30T01:26:40;97102.25;;;10.36;100.00
73103;BME280;61294;65.988;29.172;2023-09-30T01:29:08;97108.06;;;10.48;100.00
73103;BME280;61294;65.988;29.172;2023-09-30T01:31:37;97079.47;;;10.35;100.00
73103;BME280;61294;65.988;29.172;2023-09-30T01:34:04;97102.91;;;10.45;100.00
73103;BME280;61294;65.988;29.172;2023-09-30T01:36:30;97081.31;;;10.32;100.00
73103;BME280;61294;65.988;29.172;2023-09-30T01:38:56;97080.38;;;10.33;100.00
73103;BME280;61294;65.988;29.172;2023-09-30T01:41:22;97071.81;;;10.26;100.00
73103;BME280;61294;65.988;29.172;2023-09-30T01:43:48;97088.91;;;10.43;100.00
73103;BME280;61294;65.988;29.172;2023-09-30T01:46:14;97091.53;;;10.43;100.00
73103;BME280;61294;65.988;29.172;2023-09-30T01:48:40;97081.91;;;10.42;100.00
73103;BME280;61294;65.988;29.172;2023-09-30T01:51:06;97063.03;;;10.26;100.00
73103;BME280;61294;65.988;29.172;2023-09-30T01:53:35;97074.25;;;10.34;100.00
73103;BME280;61294;65.988;29.172;2023-09-30T01:56:00;97082.03;;;10.37;100.00
73103;BME280;61294;65.988;29.172;2023-09-30T01:58:27;97068.19;;;10.30;100.00
73103;BME280;61294;65.988;29.172;2023-09-30T02:00:53;97081.91;;;10.42;100.00
73103;BME280;61294;65.988;29.172;2023-09-30T02:03:19;97050.75;;;10.26;100.00
73103;BME280;61294;65.988;29.172;2023-09-30T02:05:45;97076.63;;;10.42;100.00
73103;BME280;61294;65.988;29.172;2023-09-30T02:08:11;97060.25;;;10.32;100.00
73103;BME280;61294;65.988;29.172;2023-09-30T02:10:39;97059.38;;;10.31;100.00
73103;BME280;61294;65.988;29.172;2023-09-30T02:13:06;97059.25;;;10.38;100.00
73103;BME280;61294;65.988;29.172;2023-09-30T02:15:32;97048.84;;;10.31;100.00
73103;BME280;61294;65.988;29.172;2023-09-30T02:17:58;97053.97;;;10.38;100.00
73103;BME280;61294;65.988;29.172;2023-09-30T02:20:26;97042.91;;;10.25;100.00
73103;BME280;61294;65.988;29.172;2023-09-30T02:22:55;97039.34;;;10.26;100.00
73103;BME280;61294;65.988;29.172;2023-09-30T02:25:21;97033.34;;;10.22;100.00
73103;BME280;61294;65.988;29.172;2023-09-30T02:27:49;97041.88;;;10.29;100.00
73103;BME280;61294;65.988;29.172;2023-09-30T02:30:15;97051.44;;;10.33;100.00
73103;BME280;61294;65.988;29.172;2023-09-30T02:32:42;97032.44;;;10.22;100.00
73103;BME280;61294;65.988;29.172;2023-09-30T02:35:11;97034.09;;;10.26;100.00
73103;BME280;61294;65.988;29.172;2023-09-30T02:37:37;97056.59;;;10.38;100.00
73103;BME280;61294;65.988;29.172;2023-09-30T02:40:05;97046.97;;;10.36;100.00
73103;BME280;61294;65.988;29.172;2023-09-30T02:42:36;97027.03;;;10.28;100.00
73103;BME280;61294;65.988;29.172;2023-09-30T02:45:03;97040.84;;;10.36;100.00
73103;BME280;61294;65.988;29.172;2023-09-30T02:47:28;97029.66;;;10.28;100.00
73103;BME280;61294;65.988;29.172;2023-09-30T02:49:57;97039.88;;;10.39;100.00
73103;BME280;61294;65.988;29.172;2023-09-30T02:52:24;97043.44;;;10.38;100.00
73103;BME280;61294;65.988;29.172;2023-09-30T02:54:50;97025.09;;;10.33;100.00
73103;BME280;61294;65.988;29.172;2023-09-30T02:57:17;97023.44;;;10.30;100.00
73103;BME280;61294;65.988;29.172;2023-09-30T02:59:43;97031.19;;;10.36;100.00
73103;BME280;61294;65.988;29.172;2023-09-30T03:02:10;97027.66;;;10.38;100.00
73103;BME280;61294;65.988;29.172;2023-09-30T03:04:37;96999.06;;;10.24;100.00
73103;BME280;61294;65.988;29.172;2023-09-30T03:07:03;97019.00;;;10.32;100.00
73103;BME280;61294;65.988;29.172;2023-09-30T03:09:28;97030.47;;;10.30;100.00
73103;BME280;61294;65.988;29.172;2023-09-30T03:11:54;97001.84;;;10.19;100.00
73103;BME280;61294;65.988;29.172;2023-09-30T03:14:24;97017.25;;;10.31;100.00
73103;BME280;61294;65.988;29.172;2023-09-30T03:16:51;97025.25;;;10.28;100.00
73103;BME280;61294;65.988;29.172;2023-09-30T03:19:17;97021.66;;;10.31;100.00
73103;BME280;61294;65.988;29.172;2023-09-30T03:21:43;97003.56;;;10.20;100.00
73103;BME280;61294;65.988;29.172;2023-09-30T03:24:09;97015.84;;;10.19;100.00
73103;BME280;61294;65.988;29.172;2023-09-30T03:26:35;97001.81;;;10.21;100.00
73103;BME280;61294;65.988;29.172;2023-09-30T03:29:01;97010.44;;;10.24;100.00
73103;BME280;61294;65.988;29.172;2023-09-30T03:31:27;96971.63;;;10.02;100.00
73103;BME280;61294;65.988;29.172;2023-09-30T03:33:52;97006.88;;;10.27;100.00
73103;BME280;61294;65.988;29.172;2023-09-30T03:36:21;96999.84;;;10.27;100.00
73103;BME280;61294;65.988;29.172;2023-09-30T03:38:51;96998.13;;;10.26;100.00
73103;BME280;61294;65.988;29.172;2023-09-30T03:41:19;97003.41;;;10.26;100.00
73103;BME280;61294;65.988;29.172;2023-09-30T03:43:45;96977.44;;;10.14;100.00
73103;BME280;61294;65.988;29.172;2023-09-30T03:46:12;96985.09;;;10.22;100.00
73103;BME280;61294;65.988;29.172;2023-09-30T03:48:38;96986.88;;;10.21;100.00
73103;BME280;61294;65.988;29.172;2023-09-30T03:51:13;96995.53;;;10.25;100.00
73103;BME280;61294;65.988;29.172;2023-09-30T03:53:46;96996.53;;;10.21;100.00
73103;BME280;61294;65.988;29.172;2023-09-30T03:56:12;96986.97;;;10.18;100.00
73103;BME280;61294;65.988;29.172;2023-09-30T03:58:39;96980.06;;;10.14;100.00
73103;BME280;61294;65.988;29.172;2023-09-30T04:01:06;96979.16;;;10.15;100.00
73103;BME280;61294;65.988;29.172;2023-09-30T04:03:33;96977.44;;;10.14;100.00
73103;BME280;61294;65.988;29.172;2023-09-30T04:06:01;96987.09;;;10.13;100.00
73103;BME280;61294;65.988;29.172;2023-09-30T04:08:30;96959.28;;;10.05;100.00
73103;BME280;61294;65.988;29.172;2023-09-30T04:11:02;96988.72;;;10.17;100.00
73103;BME280;61294;65.988;29.172;2023-09-30T04:13:31;96981.97;;;10.09;100.00
73103;BME280;61294;65.988;29.172;2023-09-30T04:15:56;96981.09;;;10.08;100.00
73103;BME280;61294;65.988;29.172;2023-09-30T04:18:25;96972.31;;;10.09;100.00
73103;BME280;61294;65.988;29.172;2023-09-30T04:20:55;96967.06;;;10.09;100.00
73103;BME280;61294;65.988;29.172;2023-09-30T04:23:21;96974.94;;;10.09;100.00
73103;BME280;61294;65.988;29.172;2023-09-30T04:25:47;96972.22;;;10.12;100.00
73103;BME280;61294;65.988;29.172;2023-09-30T04:28:13;96975.59;;;10.16;100.00
73103;BME280;61294;65.988;29.172;2023-09-30T04:30:39;96954.06;;;10.03;100.00
73103;BME280;61294;65.988;29.172;2023-09-30T04:33:06;96976.44;;;10.18;100.00
73103;BME280;61294;65.988;29.172;2023-09-30T04:35:33;96981.66;;;10.19;100.00
73103;BME280;61294;65.988;29.172;2023-09-30T04:38:01;96978.03;;;10.24;100.00
73103;BME280;61294;65.988;29.172;2023-09-30T04:40:27;96969.22;;;10.25;100.00
73103;BME280;61294;65.988;29.172;2023-09-30T04:42:53;96970.13;;;10.24;100.00
73103;BME280;61294;65.988;29.172;2023-09-30T04:45:24;96967.41;;;10.27;100.00
73103;BME280;61294;65.988;29.172;2023-09-30T04:47:52;96952.41;;;10.29;100.00
73103;BME280;61294;65.988;29.172;2023-09-30T04:50:18;96946.34;;;10.27;100.00
73103;BME280;61294;65.988;29.172;2023-09-30T04:52:47;96942.13;;;10.21;100.00
73103;BME280;61294;65.988;29.172;2023-09-30T04:55:15;96941.41;;;10.16;100.00
73103;BME280;61294;65.988;29.172;2023-09-30T04:57:48;96958.47;;;10.32;100.00
73103;BME280;61294;65.988;29.172;2023-09-30T05:00:15;96931.81;;;10.15;100.00
73103;BME280;61294;65.988;29.172;2023-09-30T05:02:43;96951.50;;;10.30;100.00
73103;BME280;61294;65.988;29.172;2023-09-30T05:05:12;96948.25;;;10.22;100.00
73103;BME280;61294;65.988;29.172;2023-09-30T05:07:38;96930.13;;;10.12;100.00
73103;BME280;61294;65.988;29.172;2023-09-30T05:10:04;96952.47;;;10.27;100.00
73103;BME280;61294;65.988;29.172;2023-09-30T05:12:36;96950.75;;;10.26;100.00
73103;BME280;61294;65.988;29.172;2023-09-30T05:15:03;96924.75;;;10.15;100.00
73103;BME280;61294;65.988;29.172;2023-09-30T05:17:31;96929.78;;;10.23;100.00
73103;BME280;61294;65.988;29.172;2023-09-30T05:19:57;96922.94;;;10.17;100.00
73103;BME280;61294;65.988;29.172;2023-09-30T05:22:23;96958.28;;;10.39;100.00
73103;BME280;61294;65.988;29.172;2023-09-30T05:24:53;96955.72;;;10.37;100.00
73103;BME280;61294;65.988;29.172;2023-09-30T05:27:19;96956.53;;;10.39;100.00
73103;BME280;61294;65.988;29.172;2023-09-30T05:29:45;96934.91;;;10.28;100.00
73103;BME280;61294;65.988;29.172;2023-09-30T05:32:11;96929.56;;;10.31;100.00
73103;BME280;61294;65.988;29.172;2023-09-30T05:34:38;96953.06;;;10.37;100.00
73103;BME280;61294;65.988;29.172;2023-09-30T05:37:04;96933.19;;;10.27;100.00
73103;BME280;61294;65.988;29.172;2023-09-30T05:39:30;96937.41;;;10.32;100.00
73103;BME280;61294;65.988;29.172;2023-09-30T05:41:57;96946.06;;;10.38;100.00
73103;BME280;61294;65.988;29.172;2023-09-30T05:44:23;96939.81;;;10.40;100.00
73103;BME280;61294;65.988;29.172;2023-09-30T05:46:53;96906.81;;;10.28;100.00
73103;BME280;61294;65.988;29.172;2023-09-30T05:49:20;96930.97;;;10.43;100.00
73103;BME280;61294;65.988;29.172;2023-09-30T05:51:46;96927.63;;;10.38;100.00
73103;BME280;61294;65.988;29.172;2023-09-30T05:54:12;96924.91;;;10.41;100.00
73103;BME280;61294;65.988;29.172;2023-09-30T05:56:38;96926.59;;;10.42;100.00
73103;BME280;61294;65.988;29.172;2023-09-30T05:59:05;96923.97;;;10.42;100.00
73103;BME280;61294;65.988;29.172;2023-09-30T06:01:32;96908.44;;;10.32;100.00
73103;BME280;61294;65.988;29.172;2023-09-30T06:03:59;96899.66;;;10.33;100.00
73103;BME280;61294;65.988;29.172;2023-09-30T06:06:26;96921.22;;;10.46;100.00
73103;BME280;61294;65.988;29.172;2023-09-30T06:08:56;96919.31;;;10.50;100.00
73103;BME280;61294;65.988;29.172;2023-09-30T06:11:26;96908.16;;;10.43;100.00
73103;BME280;61294;65.988;29.172;2023-09-30T06:14:04;96898.69;;;10.38;100.00
73103;BME280;61294;65.988;29.172;2023-09-30T06:16:34;96896.75;;;10.43;100.00
73103;BME280;61294;65.988;29.172;2023-09-30T06:19:03;96907.22;;;10.44;100.00
73103;BME280;61294;65.988;29.172;2023-09-30T06:21:32;96883.84;;;10.35;100.00
73103;BME280;61294;65.988;29.172;2023-09-30T06:24:00;96887.03;;;10.45;100.00
73103;BME280;61294;65.988;29.172;2023-09-30T06:26:26;96901.53;;;10.58;100.00
73103;BME280;61294;65.988;29.172;2023-09-30T06:28:54;96905.88;;;10.59;100.00
73103;BME280;61294;65.988;29.172;2023-09-30T06:31:21;96883.31;;;10.52;100.00
73103;BME280;61294;65.988;29.172;2023-09-30T06:33:48;96898.94;;;10.57;100.00
73103;BME280;61294;65.988;29.172;2023-09-30T06:36:14;96904.31;;;10.53;100.00
73103;BME280;61294;65.988;29.172;2023-09-30T06:38:41;96891.31;;;10.47;100.00
73103;BME280;61294;65.988;29.172;2023-09-30T06:41:16;96883.34;;;10.50;100.00
73103;BME280;61294;65.988;29.172;2023-09-30T06:43:42;96901.41;;;10.61;100.00
73103;BME280;61294;65.988;29.172;2023-09-30T06:46:08;96884.75;;;10.61;100.00
73103;BME280;61294;65.988;29.172;2023-09-30T06:48:39;96875.25;;;10.57;100.00
73103;BME280;61294;65.988;29.172;2023-09-30T06:51:07;96865.63;;;10.56;100.00
73103;BME280;61294;65.988;29.172;2023-09-30T06:53:33;96896.00;;;10.66;100.00
73103;BME280;61294;65.988;29.172;2023-09-30T06:55:59;96898.66;;;10.64;100.00
73103;BME280;61294;65.988;29.172;2023-09-30T06:58:25;96882.06;;;10.62;100.00
73103;BME280;61294;65.988;29.172;2023-09-30T07:00:51;96886.28;;;10.68;100.00
73103;BME280;61294;65.988;29.172;2023-09-30T07:03:19;96881.47;;;10.54;100.00
73103;BME280;61294;65.988;29.172;2023-09-30T07:05:47;96883.88;;;10.60;100.00
73103;BME280;61294;65.988;29.172;2023-09-30T07:08:17;96872.72;;;10.53;100.00
73103;BME280;61294;65.988;29.172;2023-09-30T07:10:44;96864.03;;;10.50;100.00
73103;BME280;61294;65.988;29.172;2023-09-30T07:13:12;96873.34;;;10.60;100.00
73103;BME280;61294;65.988;29.172;2023-09-30T07:15:37;96849.19;;;10.49;100.00
73103;BME280;61294;65.988;29.172;2023-09-30T07:18:03;96845.44;;;10.56;100.00
73103;BME280;61294;65.988;29.172;2023-09-30T07:20:29;96846.38;;;10.53;100.00
73103;BME280;61294;65.988;29.172;2023-09-30T07:22:59;96868.84;;;10.64;100.00
73103;BME280;61294;65.988;29.172;2023-09-30T07:25:26;96877.78;;;10.60;100.00
73103;BME280;61294;65.988;29.172;2023-09-30T07:27:52;96869.66;;;10.66;100.00
73103;BME280;61294;65.988;29.172;2023-09-30T07:30:18;96869.53;;;10.70;100.00
73103;BME280;61294;65.988;29.172;2023-09-30T07:32:45;96853.72;;;10.70;100.00
73103;BME280;61294;65.988;29.172;2023-09-30T07:35:12;96864.31;;;10.69;100.00
73103;BME280;61294;65.988;29.172;2023-09-30T07:37:41;96856.25;;;10.74;100.00
73103;BME280;61294;65.988;29.172;2023-09-30T07:40:08;96857.97;;;10.75;100.00
73103;BME280;61294;65.988;29.172;2023-09-30T07:42:35;96844.25;;;10.90;100.00
73103;BME280;61294;65.988;29.172;2023-09-30T07:45:02;96845.38;;;11.08;100.00
73103;BME280;61294;65.988;29.172;2023-09-30T07:47:29;96854.00;;;11.13;100.00
73103;BME280;61294;65.988;29.172;2023-09-30T07:49:56;96840.94;;;11.10;100.00
73103;BME280;61294;65.988;29.172;2023-09-30T07:52:22;96848.31;;;11.24;100.00
73103;BME280;61294;65.988;29.172;2023-09-30T07:54:48;96843.88;;;11.26;100.00
73103;BME280;61294;65.988;29.172;2023-09-30T07:57:13;96848.50;;;11.19;100.00
73103;BME280;61294;65.988;29.172;2023-09-30T07:59:40;96848.69;;;11.15;100.00
73103;BME280;61294;65.988;29.172;2023-09-30T08:02:05;96831.56;;;11.01;100.00
73103;BME280;61294;65.988;29.172;2023-09-30T08:04:32;96842.03;;;11.04;100.00
73103;BME280;61294;65.988;29.172;2023-09-30T08:06:58;96844.84;;;10.98;100.00
73103;BME280;61294;65.988;29.172;2023-09-30T08:09:24;96837.81;;;10.99;100.00
73103;BME280;61294;65.988;29.172;2023-09-30T08:11:53;96842.09;;;11.01;100.00
73103;BME280;61294;65.988;29.172;2023-09-30T08:14:19;96843.94;;;10.99;100.00
73103;BME280;61294;65.988;29.172;2023-09-30T08:16:45;96826.47;;;10.97;100.00
73103;BME280;61294;65.988;29.172;2023-09-30T08:19:11;96841.44;;;11.20;100.00
73103;BME280;61294;65.988;29.172;2023-09-30T08:24:14;96838.72;;;11.23;100.00
73103;BME280;61294;65.988;29.172;2023-09-30T08:26:40;96832.69;;;11.19;100.00
73103;BME280;61294;65.988;29.172;2023-09-30T08:29:06;96833.28;;;11.28;100.00
73103;BME280;61294;65.988;29.172;2023-09-30T08:31:32;96833.63;;;11.42;100.00
73103;BME280;61294;65.988;29.172;2023-09-30T08:33:58;96832.59;;;11.46;100.00
73103;BME280;61294;65.988;29.172;2023-09-30T08:36:24;96829.84;;;11.49;100.00
73103;BME280;61294;65.988;29.172;2023-09-30T08:38:50;96823.66;;;11.50;100.00
73103;BME280;61294;65.988;29.172;2023-09-30T08:41:33;96825.94;;;11.60;100.00
73103;BME280;61294;65.988;29.172;2023-09-30T08:44:00;96823.41;;;11.56;100.00
73103;BME280;61294;65.988;29.172;2023-09-30T08:46:34;96833.56;;;11.67;100.00
73103;BME280;61294;65.988;29.172;2023-09-30T08:49:04;96828.84;;;11.75;100.00
73103;BME280;61294;65.988;29.172;2023-09-30T08:51:31;96822.78;;;11.50;100.00
73103;BME280;61294;65.988;29.172;2023-09-30T08:53:58;96837.28;;;11.62;100.00
73103;BME280;61294;65.988;29.172;2023-09-30T08:56:29;96823.41;;;11.56;100.00
73103;BME280;61294;65.988;29.172;2023-09-30T08:58:59;96831.72;;;11.69;100.00
73103;BME280;61294;65.988;29.172;2023-09-30T09:01:29;96817.38;;;11.77;100.00
73103;BME280;61294;65.988;29.172;2023-09-30T09:03:56;96804.63;;;11.66;100.00
73103;BME280;61294;65.988;29.172;2023-09-30T09:06:23;96820.38;;;11.67;100.00
73103;BME280;61294;65.988;29.172;2023-09-30T09:08:50;96803.06;;;11.60;100.00
73103;BME280;61294;65.988;29.172;2023-09-30T09:11:17;96797.56;;;11.66;100.00
73103;BME280;61294;65.988;29.172;2023-09-30T09:13:53;96796.00;;;11.61;100.00
73103;BME280;61294;65.988;29.172;2023-09-30T09:16:24;96800.84;;;11.49;100.00
73103;BME280;61294;65.988;29.172;2023-09-30T09:18:50;96808.63;;;11.52;100.00
73103;BME280;61294;65.988;29.172;2023-09-30T09:21:22;96802.03;;;11.40;100.00
73103;BME280;61294;65.988;29.172;2023-09-30T09:23:50;96811.84;;;11.61;100.00
73103;BME280;61294;65.988;29.172;2023-09-30T09:26:28;96811.25;;;11.52;100.00
73103;BME280;61294;65.988;29.172;2023-09-30T09:29:01;96815.44;;;11.58;100.00
73103;BME280;61294;65.988;29.172;2023-09-30T09:31:33;96809.19;;;11.61;100.00
73103;BME280;61294;65.988;29.172;2023-09-30T09:34:03;96797.75;;;11.62;100.00
73103;BME280;61294;65.988;29.172;2023-09-30T09:36:58;96805.13;;;11.52;100.00
73103;BME280;61294;65.988;29.172;2023-09-30T09:39:30;96809.97;;;11.40;100.00
73103;BME280;61294;65.988;29.172;2023-09-30T09:41:56;96811.88;;;11.35;100.00
73103;BME280;61294;65.988;29.172;2023-09-30T09:44:24;96811.03;;;11.35;100.00
73103;BME280;61294;65.988;29.172;2023-09-30T09:46:53;96798.84;;;11.32;100.00
73103;BME280;61294;65.988;29.172;2023-09-30T09:49:20;96801.41;;;11.34;100.00
73103;BME280;61294;65.988;29.172;2023-09-30T09:51:47;96804.09;;;11.32;100.00
73103;BME280;61294;65.988;29.172;2023-09-30T09:54:15;96804.94;;;11.33;100.00
73103;BME280;61294;65.988;29.172;2023-09-30T09:56:43;96792.25;;;11.20;100.00
73103;BME280;61294;65.988;29.172;2023-09-30T09:59:12;96812.41;;;11.21;100.00
73103;BME280;61294;65.988;29.172;2023-09-30T10:01:40;96796.59;;;11.21;100.00
73103;BME280;61294;65.988;29.172;2023-09-30T10:04:06;96800.41;;;11.13;100.00
73103;BME280;61294;65.988;29.172;2023-09-30T10:06:35;96806.41;;;11.18;100.00
73103;BME280;61294;65.988;29.172;2023-09-30T10:09:09;96805.47;;;11.19;100.00
73103;BME280;61294;65.988;29.172;2023-09-30T10:11:36;96799.44;;;11.15;100.00
73103;BME280;61294;65.988;29.172;2023-09-30T10:14:02;96802.38;;;11.08;100.00
73103;BME280;61294;65.988;29.172;2023-09-30T10:19:10;96800.22;;;10.94;100.00
73103;BME280;61294;65.988;29.172;2023-09-30T10:21:36;96801.56;;;11.05;100.00
73103;BME280;61294;65.988;29.172;2023-09-30T10:35:19;96797.44;;;10.98;100.00
73103;BME280;61294;65.988;29.172;2023-09-30T10:37:46;96786.22;;;10.93;100.00
73103;BME280;61294;65.988;29.172;2023-09-30T10:40:29;96794.00;;;10.96;100.00
73103;BME280;61294;65.988;29.172;2023-09-30T10:42:55;96806.81;;;11.05;100.00
73103;BME280;61294;65.988;29.172;2023-09-30T10:45:42;96791.97;;;11.04;100.00
73103;BME280;61294;65.988;29.172;2023-09-30T10:50:58;96793.81;;;11.01;100.00
73103;BME280;61294;65.988;29.172;2023-09-30T10:53:29;96789.53;;;10.98;100.00
73103;BME280;61294;65.988;29.172;2023-09-30T10:55:59;96782.44;;;11.00;100.00
73103;BME280;61294;65.988;29.172;2023-09-30T10:58:48;96781.50;;;11.01;100.00
73103;BME280;61294;65.988;29.172;2023-09-30T11:01:19;96755.63;;;10.89;100.00
73103;BME280;61294;65.988;29.172;2023-09-30T11:03:46;96783.69;;;11.14;100.00
73103;BME280;61294;65.988;29.172;2023-09-30T11:06:13;96772.97;;;11.18;100.00
73103;BME280;61294;65.988;29.172;2023-09-30T11:09:02;96751.44;;;11.07;100.00
73103;BME280;61294;65.988;29.172;2023-09-30T11:11:40;96772.91;;;11.20;100.00
73103;BME280;61294;65.988;29.172;2023-09-30T11:14:28;96754.78;;;11.12;100.00
73103;BME280;61294;65.988;29.172;2023-09-30T11:16:59;96765.06;;;11.18;100.00
73103;BME280;61294;65.988;29.172;2023-09-30T11:19:35;96759.94;;;11.15;100.00
73103;BME280;61294;65.988;29.172;2023-09-30T11:22:01;96760.78;;;11.16;100.00
73103;BME280;61294;65.988;29.172;2023-09-30T11:24:26;96751.22;;;11.13;100.00
73103;BME280;61294;65.988;29.172;2023-09-30T11:26:54;96759.66;;;11.23;100.00
73103;BME280;61294;65.988;29.172;2023-09-30T11:29:23;96760.78;;;11.16;100.00
73103;BME280;61294;65.988;29.172;2023-09-30T11:31:50;96746.63;;;11.18;100.00
73103;BME280;61294;65.988;29.172;2023-09-30T11:34:19;96744.88;;;11.19;100.00
73103;BME280;61294;65.988;29.172;2023-09-30T11:36:50;96725.97;;;11.08;100.00
73103;BME280;61294;65.988;29.172;2023-09-30T11:39:25;96743.94;;;11.20;100.00
73103;BME280;61294;65.988;29.172;2023-09-30T11:41:51;96741.28;;;11.20;100.00
73103;BME280;61294;65.988;29.172;2023-09-30T11:44:18;96730.75;;;11.20;100.00
73103;BME280;61294;65.988;29.172;2023-09-30T11:46:48;96729.06;;;11.19;100.00
73103;BME280;61294;65.988;29.172;2023-09-30T11:49:24;96744.81;;;11.20;100.00
73103;BME280;61294;65.988;29.172;2023-09-30T11:51:50;96724.88;;;11.13;100.00
73103;BME280;61294;65.988;29.172;2023-09-30T11:54:16;96732.47;;;11.21;100.00
73103;BME280;61294;65.988;29.172;2023-09-30T11:56:42;96730.75;;;11.20;100.00
73103;BME280;61294;65.988;29.172;2023-09-30T11:59:08;96728.19;;;11.18;100.00
73103;BME280;61294;65.988;29.172;2023-09-30T12:01:37;96730.75;;;11.20;100.00
73103;BME280;61294;65.988;29.172;2023-09-30T12:04:03;96715.13;;;11.15;100.00
73103;BME280;61294;65.988;29.172;2023-09-30T12:06:29;96733.63;;;11.14;100.00
73103;BME280;61294;65.988;29.172;2023-09-30T12:08:55;96720.53;;;11.12;100.00
73103;BME280;61294;65.988;29.172;2023-09-30T12:11:21;96710.88;;;11.11;100.00
73103;BME280;61294;65.988;29.172;2023-09-30T12:13:49;96709.06;;;11.13;100.00
73103;BME280;61294;65.988;29.172;2023-09-30T12:16:16;96718.47;;;11.20;100.00
73103;BME280;61294;65.988;29.172;2023-09-30T12:18:42;96718.53;;;11.19;100.00
73103;BME280;61294;65.988;29.172;2023-09-30T12:21:10;96713.19;;;11.20;100.00
73103;BME280;61294;65.988;29.172;2023-09-30T12:23:37;96698.66;;;11.10;100.00
73103;BME280;61294;65.988;29.172;2023-09-30T12:26:03;96711.59;;;11.16;100.00
73103;BME280;61294;65.988;29.172;2023-09-30T12:28:32;96711.84;;;11.09;100.00
73103;BME280;61294;65.988;29.172;2023-09-30T12:31:01;96707.41;;;11.11;100.00
73103;BME280;61294;65.988;29.172;2023-09-30T12:33:29;96696.16;;;11.05;100.00
73103;BME280;61294;65.988;29.172;2023-09-30T12:35:56;96693.38;;;11.10;100.00
73103;BME280;61294;65.988;29.172;2023-09-30T12:38:25;96684.59;;;11.10;100.00
73103;BME280;61294;65.988;29.172;2023-09-30T12:40:54;96699.44;;;11.12;100.00
73103;BME280;61294;65.988;29.172;2023-09-30T12:43:21;96664.78;;;10.99;100.00
73103;BME280;61294;65.988;29.172;2023-09-30T12:45:47;96689.88;;;11.10;100.00
73103;BME280;61294;65.988;29.172;2023-09-30T12:48:16;96683.88;;;11.06;100.00
73103;BME280;61294;65.988;29.172;2023-09-30T12:50:43;96674.44;;;11.00;100.00
73103;BME280;61294;65.988;29.172;2023-09-30T12:53:10;96681.13;;;11.09;100.00
73103;BME280;61294;65.988;29.172;2023-09-30T12:55:36;96687.34;;;11.07;100.00
73103;BME280;61294;65.988;29.172;2023-09-30T12:58:02;96681.97;;;11.10;100.00
73103;BME280;61294;65.988;29.172;2023-09-30T13:00:31;96677.56;;;11.10;100.00
73103;BME280;61294;65.988;29.172;2023-09-30T13:03:01;96682.03;;;11.08;100.00
73103;BME280;61294;65.988;29.172;2023-09-30T13:05:28;96681.13;;;11.09;100.00
73103;BME280;61294;65.988;29.172;2023-09-30T13:07:58;96678.69;;;11.03;100.00
73103;BME280;61294;65.988;29.172;2023-09-30T13:10:25;96660.75;;;10.91;100.00
73103;BME280;61294;65.988;29.172;2023-09-30T13:12:52;96646.75;;;10.88;100.00
73103;BME280;61294;65.988;29.172;2023-09-30T13:15:19;96669.16;;;11.00;100.00
73103;BME280;61294;65.988;29.172;2023-09-30T13:17:47;96667.75;;;10.90;100.00